sensor_id;sensor_type;location;lat;lon;timestamp;pressure;altitude;pressure_sealevel;temperature;humidity
55171;BME280;41060;47.510;8.680;2024-01-06T00:02:24;95834.53;;;7.47;61.76
55171;BME280;41060;47.510;8.680;2024-01-06T00:04:53;95898.03;;;7.84;62.23
55171;BME280;41060;47.510;8.680;2024-01-06T00:07:20;95913.00;;;7.83;62.73
55171;BME280;41060;47.510;8.680;2024-01-06T00:09:47;95907.91;;;7.91;62.47
55171;BME280;41060;47.510;8.680;2024-01-06T00:12:13;95903.16;;;7.85;62.66
55171;BME280;41060;47.510;8.680;2024-01-06T00:14:40;95900.13;;;7.90;62.56
55171;BME280;41060;47.510;8.680;2024-01-06T00:17:11;95902.06;;;7.97;62.22
55171;BME280;41060;47.510;8.680;2024-01-06T00:19:37;95900.97;;;8.00;61.72
55171;BME280;41060;47.510;8.680;2024-01-06T00:22:05;95900.97;;;8.00;62.03
55171;BME280;41060;47.510;8.680;2024-01-06T00:24:32;95906.69;;;8.05;61.99
55171;BME280;41060;47.510;8.680;2024-01-06T00:26:59;95908.47;;;8.05;62.08
55171;BME280;41060;47.510;8.680;2024-01-06T00:29:26;95911.25;;;7.93;62.25
55171;BME280;41060;47.510;8.680;2024-01-06T00:31:53;95913.97;;;7.82;62.94
55171;BME280;41060;47.510;8.680;2024-01-06T00:34:20;95919.66;;;7.78;62.90
55171;BME280;41060;47.510;8.680;2024-01-06T00:36:46;95926.22;;;7.62;62.95
55171;BME280;41060;47.510;8.680;2024-01-06T00:39:15;95929.22;;;7.58;63.57
55171;BME280;41060;47.510;8.680;2024-01-06T00:41:41;95932.13;;;7.76;62.89
55171;BME280;41060;47.510;8.680;2024-01-06T00:44:08;95922.16;;;7.89;62.57
55171;BME280;41060;47.510;8.680;2024-01-06T00:46:35;95927.50;;;8.08;61.60
55171;BME280;41060;47.510;8.680;2024-01-06T00:49:02;95921.13;;;8.20;61.23
55171;BME280;41060;47.510;8.680;2024-01-06T00:51:29;95916.84;;;8.29;61.08
55171;BME280;41060;47.510;8.680;2024-01-06T00:53:56;95924.91;;;8.37;60.71
55171;BME280;41060;47.510;8.680;2024-01-06T00:56:24;95929.63;;;8.43;60.32
55171;BME280;41060;47.510;8.680;2024-01-06T00:58:52;95935.06;;;8.51;59.87
55171;BME280;41060;47.510;8.680;2024-01-06T01:01:19;95943.53;;;8.45;60.50
55171;BME280;41060;47.510;8.680;2024-01-06T01:03:46;95938.09;;;8.37;60.24
55171;BME280;41060;47.510;8.680;2024-01-06T01:06:13;95948.59;;;8.18;61.40
55171;BME280;41060;47.510;8.680;2024-01-06T01:08:40;95949.00;;;8.13;61.28
55171;BME280;41060;47.510;8.680;2024-01-06T01:11:07;95949.94;;;8.02;61.96
55171;BME280;41060;47.510;8.680;2024-01-06T01:13:35;95949.16;;;8.12;61.83
55171;BME280;41060;47.510;8.680;2024-01-06T01:16:02;95950.28;;;8.19;61.15
55171;BME280;41060;47.510;8.680;2024-01-06T01:18:29;95944.88;;;8.20;61.33
55171;BME280;41060;47.510;8.680;2024-01-06T01:20:56;95960.13;;;8.17;61.46
55171;BME280;41060;47.510;8.680;2024-01-06T01:23:23;95967.06;;;8.18;61.13
55171;BME280;41060;47.510;8.680;2024-01-06T01:25:49;95963.00;;;8.04;61.64
55171;BME280;41060;47.510;8.680;2024-01-06T01:28:16;95960.91;;;7.98;61.89
55171;BME280;41060;47.510;8.680;2024-01-06T01:30:45;95965.50;;;8.06;61.83
55171;BME280;41060;47.510;8.680;2024-01-06T01:33:11;95976.75;;;8.08;61.69
55171;BME280;41060;47.510;8.680;2024-01-06T01:35:38;95985.88;;;8.04;61.61
55171;BME280;41060;47.510;8.680;2024-01-06T01:38:07;95996.31;;;8.05;61.99
55171;BME280;41060;47.510;8.680;2024-01-06T01:40:34;95995.50;;;8.14;61.30
55171;BME280;41060;47.510;8.680;2024-01-06T01:43:01;96002.16;;;8.18;61.29
55171;BME280;41060;47.510;8.680;2024-01-06T01:45:28;96003.72;;;8.21;61.33
55171;BME280;41060;47.510;8.680;2024-01-06T01:47:56;96003.47;;;8.24;60.94
55171;BME280;41060;47.510;8.680;2024-01-06T01:50:26;96005.41;;;8.31;60.19
55171;BME280;41060;47.510;8.680;2024-01-06T01:52:56;95999.59;;;8.37;60.52
55171;BME280;41060;47.510;8.680;2024-01-06T01:55:24;96006.78;;;8.26;60.78
55171;BME280;41060;47.510;8.680;2024-01-06T01:57:51;96010.31;;;8.06;61.23
55171;BME280;41060;47.510;8.680;2024-01-06T02:00:18;96009.13;;;7.79;61.05
55171;BME280;41060;47.510;8.680;2024-01-06T02:02:45;95988.81;;;7.70;60.34
55171;BME280;41060;47.510;8.680;2024-01-06T02:05:13;96013.13;;;7.83;60.28
55171;BME280;41060;47.510;8.680;2024-01-06T02:07:40;96012.59;;;7.89;59.80
55171;BME280;41060;47.510;8.680;2024-01-06T02:10:08;96013.16;;;7.62;59.47
55171;BME280;41060;47.510;8.680;2024-01-06T02:12:34;96019.91;;;7.55;60.23
55171;BME280;41060;47.510;8.680;2024-01-06T02:15:02;95983.50;;;7.40;59.75
55171;BME280;41060;47.510;8.680;2024-01-06T02:17:29;96012.38;;;7.51;60.37
55171;BME280;41060;47.510;8.680;2024-01-06T02:19:56;96009.75;;;7.51;60.03
55171;BME280;41060;47.510;8.680;2024-01-06T02:22:24;96018.78;;;7.58;60.20
55171;BME280;41060;47.510;8.680;2024-01-06T02:24:50;96019.66;;;7.79;59.73
55171;BME280;41060;47.510;8.680;2024-01-06T02:27:17;96022.84;;;7.83;59.12
55171;BME280;41060;47.510;8.680;2024-01-06T02:29:44;96017.44;;;7.84;59.08
55171;BME280;41060;47.510;8.680;2024-01-06T02:32:10;96019.66;;;7.79;58.65
55171;BME280;41060;47.510;8.680;2024-01-06T02:34:37;96020.09;;;7.84;58.68
55171;BME280;41060;47.510;8.680;2024-01-06T02:37:07;96021.44;;;7.79;57.81
55171;BME280;41060;47.510;8.680;2024-01-06T02:39:35;96029.47;;;7.77;58.43
55171;BME280;41060;47.510;8.680;2024-01-06T02:42:02;96025.59;;;7.81;57.72
55171;BME280;41060;47.510;8.680;2024-01-06T02:44:29;96033.50;;;7.81;57.72
55171;BME280;41060;47.510;8.680;2024-01-06T02:46:55;96030.88;;;7.81;58.13
55171;BME280;41060;47.510;8.680;2024-01-06T02:49:22;96034.66;;;7.88;57.76
55171;BME280;41060;47.510;8.680;2024-01-06T02:51:51;96042.75;;;7.96;57.39
55171;BME280;41060;47.510;8.680;2024-01-06T02:54:18;96041.53;;;8.00;57.19
55171;BME280;41060;47.510;8.680;2024-01-06T02:56:46;96036.25;;;8.00;56.88
55171;BME280;41060;47.510;8.680;2024-01-06T02:59:13;96040.88;;;8.08;56.38
55171;BME280;41060;47.510;8.680;2024-01-06T03:01:40;96040.56;;;8.11;56.86
55171;BME280;41060;47.510;8.680;2024-01-06T03:04:06;96037.41;;;8.17;56.86
55171;BME280;41060;47.510;8.680;2024-01-06T03:06:34;96038.41;;;8.16;57.01
55171;BME280;41060;47.510;8.680;2024-01-06T03:09:01;96031.16;;;8.18;57.28
55171;BME280;41060;47.510;8.680;2024-01-06T03:11:28;96037.16;;;8.20;57.28
55171;BME280;41060;47.510;8.680;2024-01-06T03:13:56;96042.44;;;8.20;56.75
55171;BME280;41060;47.510;8.680;2024-01-06T03:16:24;96039.97;;;7.98;57.42
55171;BME280;41060;47.510;8.680;2024-01-06T03:18:50;96040.19;;;7.85;57.58
55171;BME280;41060;47.510;8.680;2024-01-06T03:21:23;96040.16;;;7.76;57.75
55171;BME280;41060;47.510;8.680;2024-01-06T03:23:51;96041.28;;;7.62;58.24
55171;BME280;41060;47.510;8.680;2024-01-06T03:26:21;96049.97;;;7.74;57.96
55171;BME280;41060;47.510;8.680;2024-01-06T03:28:49;96048.88;;;7.76;57.89
55171;BME280;41060;47.510;8.680;2024-01-06T03:31:17;96041.56;;;7.80;57.64
55171;BME280;41060;47.510;8.680;2024-01-06T03:33:46;96035.28;;;7.71;57.64
55171;BME280;41060;47.510;8.680;2024-01-06T03:36:13;96056.66;;;7.78;58.04
55171;BME280;41060;47.510;8.680;2024-01-06T03:38:41;96043.69;;;7.86;57.77
55171;BME280;41060;47.510;8.680;2024-01-06T03:41:08;96048.53;;;7.90;57.44
55171;BME280;41060;47.510;8.680;2024-01-06T03:43:34;96049.25;;;7.92;57.83
55171;BME280;41060;47.510;8.680;2024-01-06T03:46:01;96054.22;;;7.86;58.01
55171;BME280;41060;47.510;8.680;2024-01-06T03:48:30;96058.34;;;7.79;57.82
55171;BME280;41060;47.510;8.680;2024-01-06T03:50:57;96058.66;;;7.85;57.93
55171;BME280;41060;47.510;8.680;2024-01-06T03:53:24;96065.06;;;7.92;57.71
55171;BME280;41060;47.510;8.680;2024-01-06T03:55:51;96067.16;;;7.98;57.42
55171;BME280;41060;47.510;8.680;2024-01-06T03:58:18;96058.84;;;7.93;57.76
55171;BME280;41060;47.510;8.680;2024-01-06T04:00:45;96054.22;;;7.86;57.85
55171;BME280;41060;47.510;8.680;2024-01-06T04:03:12;96061.72;;;7.90;57.82
55171;BME280;41060;47.510;8.680;2024-01-06T04:05:40;96067.00;;;7.90;57.48
55171;BME280;41060;47.510;8.680;2024-01-06T04:08:07;96065.31;;;7.89;57.53
55171;BME280;41060;47.510;8.680;2024-01-06T04:10:34;96069.78;;;7.68;58.13
55171;BME280;41060;47.510;8.680;2024-01-06T04:13:00;96076.50;;;7.61;58.04
55171;BME280;41060;47.510;8.680;2024-01-06T04:15:27;96078.38;;;7.49;58.46
55171;BME280;41060;47.510;8.680;2024-01-06T04:17:54;96087.66;;;7.33;59.06
55171;BME280;41060;47.510;8.680;2024-01-06T04:20:21;96082.75;;;7.28;59.23
55171;BME280;41060;47.510;8.680;2024-01-06T04:22:49;96081.84;;;7.50;58.49
55171;BME280;41060;47.510;8.680;2024-01-06T04:25:16;96079.56;;;7.66;58.32
55171;BME280;41060;47.510;8.680;2024-01-06T04:27:43;96076.91;;;7.77;58.25
55171;BME280;41060;47.510;8.680;2024-01-06T04:30:12;96073.75;;;7.83;57.59
55171;BME280;41060;47.510;8.680;2024-01-06T04:32:39;96077.66;;;7.89;57.33
55171;BME280;41060;47.510;8.680;2024-01-06T04:35:07;96080.03;;;7.92;57.34
55171;BME280;41060;47.510;8.680;2024-01-06T04:37:34;96081.25;;;7.88;57.28
55171;BME280;41060;47.510;8.680;2024-01-06T04:40:03;96087.25;;;7.90;57.62
55171;BME280;41060;47.510;8.680;2024-01-06T04:42:30;96088.59;;;7.84;57.48
55171;BME280;41060;47.510;8.680;2024-01-06T04:44:56;96094.59;;;7.34;58.65
55171;BME280;41060;47.510;8.680;2024-01-06T04:47:26;96097.47;;;7.31;58.84
55171;BME280;41060;47.510;8.680;2024-01-06T04:49:53;96096.66;;;7.51;58.50
55171;BME280;41060;47.510;8.680;2024-01-06T04:52:19;96104.19;;;7.55;58.11
55171;BME280;41060;47.510;8.680;2024-01-06T04:54:47;96100.56;;;7.68;57.69
55171;BME280;41060;47.510;8.680;2024-01-06T04:57:15;96103.50;;;7.74;57.82
55171;BME280;41060;47.510;8.680;2024-01-06T04:59:42;96103.13;;;7.79;57.51
55171;BME280;41060;47.510;8.680;2024-01-06T05:02:10;96106.09;;;7.85;57.12
55171;BME280;41060;47.510;8.680;2024-01-06T05:04:36;96102.50;;;7.86;57.06
55171;BME280;41060;47.510;8.680;2024-01-06T05:07:03;96096.94;;;7.89;56.96
55171;BME280;41060;47.510;8.680;2024-01-06T05:09:30;96103.63;;;7.93;56.64
55171;BME280;41060;47.510;8.680;2024-01-06T05:11:57;96106.97;;;7.95;56.39
55171;BME280;41060;47.510;8.680;2024-01-06T05:14:25;96107.94;;;7.94;56.47
55171;BME280;41060;47.510;8.680;2024-01-06T05:16:53;96110.97;;;7.90;56.89
55171;BME280;41060;47.510;8.680;2024-01-06T05:19:20;96100.16;;;7.93;56.21
55171;BME280;41060;47.510;8.680;2024-01-06T05:21:47;96107.13;;;7.94;56.20
55171;BME280;41060;47.510;8.680;2024-01-06T05:24:14;96104.59;;;7.92;56.01
55171;BME280;41060;47.510;8.680;2024-01-06T05:26:41;96110.84;;;7.91;56.38
55171;BME280;41060;47.510;8.680;2024-01-06T05:29:08;96068.34;;;7.64;56.32
55171;BME280;41060;47.510;8.680;2024-01-06T05:31:36;96107.59;;;7.88;55.98
55171;BME280;41060;47.510;8.680;2024-01-06T05:34:03;96115.53;;;7.67;56.77
55171;BME280;41060;47.510;8.680;2024-01-06T05:36:30;96121.28;;;7.61;56.43
55171;BME280;41060;47.510;8.680;2024-01-06T05:38:57;96118.09;;;7.57;56.74
55171;BME280;41060;47.510;8.680;2024-01-06T05:41:25;96124.34;;;7.66;56.44
55171;BME280;41060;47.510;8.680;2024-01-06T05:43:52;96115.41;;;7.69;56.44
55171;BME280;41060;47.510;8.680;2024-01-06T05:46:22;96118.75;;;7.71;56.33
55171;BME280;41060;47.510;8.680;2024-01-06T05:48:53;96118.34;;;7.75;56.09
55171;BME280;41060;47.510;8.680;2024-01-06T05:51:22;96116.31;;;7.79;56.06
55171;BME280;41060;47.510;8.680;2024-01-06T05:53:48;96126.00;;;7.78;55.96
55171;BME280;41060;47.510;8.680;2024-01-06T05:56:22;96124.16;;;7.69;56.27
55171;BME280;41060;47.510;8.680;2024-01-06T05:58:49;96123.19;;;7.70;56.60
55171;BME280;41060;47.510;8.680;2024-01-06T06:01:16;96132.97;;;7.79;56.17
55171;BME280;41060;47.510;8.680;2024-01-06T06:03:43;96133.91;;;7.78;56.22
55171;BME280;41060;47.510;8.680;2024-01-06T06:06:11;96140.16;;;7.77;55.98
55171;BME280;41060;47.510;8.680;2024-01-06T06:08:40;96136.91;;;7.74;56.09
55171;BME280;41060;47.510;8.680;2024-01-06T06:11:06;96141.50;;;7.72;56.21
55171;BME280;41060;47.510;8.680;2024-01-06T06:13:37;96139.25;;;7.35;56.08
55171;BME280;41060;47.510;8.680;2024-01-06T06:16:04;96148.56;;;7.39;56.82
55171;BME280;41060;47.510;8.680;2024-01-06T06:18:31;96150.19;;;7.51;56.79
55171;BME280;41060;47.510;8.680;2024-01-06T06:20:58;96145.19;;;7.48;56.89
55171;BME280;41060;47.510;8.680;2024-01-06T06:23:29;96148.44;;;7.41;56.99
55171;BME280;41060;47.510;8.680;2024-01-06T06:25:56;96164.66;;;7.14;57.10
55171;BME280;41060;47.510;8.680;2024-01-06T06:28:23;96162.59;;;7.29;57.02
55171;BME280;41060;47.510;8.680;2024-01-06T06:30:50;96146.25;;;7.14;57.06
55171;BME280;41060;47.510;8.680;2024-01-06T06:33:16;96164.88;;;7.33;56.87
55171;BME280;41060;47.510;8.680;2024-01-06T06:35:44;96154.16;;;7.46;56.26
55171;BME280;41060;47.510;8.680;2024-01-06T06:38:10;96163.22;;;7.53;56.64
55171;BME280;41060;47.510;8.680;2024-01-06T06:40:38;96160.22;;;7.57;56.43
55171;BME280;41060;47.510;8.680;2024-01-06T06:43:08;96160.22;;;7.57;56.39
55171;BME280;41060;47.510;8.680;2024-01-06T06:45:34;96157.44;;;7.59;56.07
55171;BME280;41060;47.510;8.680;2024-01-06T06:48:01;96170.78;;;7.57;56.12
55171;BME280;41060;47.510;8.680;2024-01-06T06:50:28;96166.69;;;7.53;56.33
55171;BME280;41060;47.510;8.680;2024-01-06T06:52:55;96156.59;;;7.58;56.25
55171;BME280;41060;47.510;8.680;2024-01-06T06:55:21;96163.66;;;7.58;56.16
55171;BME280;41060;47.510;8.680;2024-01-06T06:57:50;96180.38;;;7.47;56.43
55171;BME280;41060;47.510;8.680;2024-01-06T07:00:17;96175.50;;;7.32;57.13
55171;BME280;41060;47.510;8.680;2024-01-06T07:02:44;96190.81;;;7.06;57.99
55171;BME280;41060;47.510;8.680;2024-01-06T07:05:11;96187.56;;;7.02;58.42
55171;BME280;41060;47.510;8.680;2024-01-06T07:07:40;96185.31;;;6.98;58.10
55171;BME280;41060;47.510;8.680;2024-01-06T07:10:12;96188.06;;;6.96;57.91
55171;BME280;41060;47.510;8.680;2024-01-06T07:12:40;96180.75;;;7.00;57.40
55171;BME280;41060;47.510;8.680;2024-01-06T07:15:11;96189.97;;;7.05;58.05
55171;BME280;41060;47.510;8.680;2024-01-06T07:17:38;96191.00;;;7.14;57.56
55171;BME280;41060;47.510;8.680;2024-01-06T07:20:06;96187.56;;;7.02;57.00
55171;BME280;41060;47.510;8.680;2024-01-06T07:22:33;96198.13;;;6.80;57.72
55171;BME280;41060;47.510;8.680;2024-01-06T07:25:01;96192.59;;;6.94;57.85
55171;BME280;41060;47.510;8.680;2024-01-06T07:27:27;96187.19;;;7.07;57.52
55171;BME280;41060;47.510;8.680;2024-01-06T07:29:54;96191.59;;;7.17;57.02
55171;BME280;41060;47.510;8.680;2024-01-06T07:32:23;96195.19;;;7.28;57.11
55171;BME280;41060;47.510;8.680;2024-01-06T07:34:50;96197.59;;;7.19;57.03
55171;BME280;41060;47.510;8.680;2024-01-06T07:37:16;96202.34;;;7.26;57.27
55171;BME280;41060;47.510;8.680;2024-01-06T07:39:43;96211.03;;;7.37;57.07
55171;BME280;41060;47.510;8.680;2024-01-06T07:42:11;96207.09;;;7.43;56.51
55171;BME280;41060;47.510;8.680;2024-01-06T07:44:39;96223.59;;;7.45;56.35
55171;BME280;41060;47.510;8.680;2024-01-06T07:47:06;96227.06;;;7.45;56.65
55171;BME280;41060;47.510;8.680;2024-01-06T07:49:34;96226.22;;;7.56;56.10
55171;BME280;41060;47.510;8.680;2024-01-06T07:52:01;96229.69;;;7.56;56.33
55171;BME280;41060;47.510;8.680;2024-01-06T07:54:28;96227.63;;;7.60;56.16
55171;BME280;41060;47.510;8.680;2024-01-06T07:56:55;96224.75;;;7.63;55.73
55171;BME280;41060;47.510;8.680;2024-01-06T07:59:22;96225.59;;;7.63;55.66
55171;BME280;41060;47.510;8.680;2024-01-06T08:01:52;96225.25;;;7.57;56.24
55171;BME280;41060;47.510;8.680;2024-01-06T08:04:19;96228.13;;;7.54;56.34
55171;BME280;41060;47.510;8.680;2024-01-06T08:06:47;96229.78;;;7.55;56.07
55171;BME280;41060;47.510;8.680;2024-01-06T08:09:14;96233.16;;;7.57;56.31
55171;BME280;41060;47.510;8.680;2024-01-06T08:11:41;96222.63;;;7.57;56.41
55171;BME280;41060;47.510;8.680;2024-01-06T08:14:08;96226.44;;;7.53;56.20
55171;BME280;41060;47.510;8.680;2024-01-06T08:16:36;96224.53;;;7.55;56.22
55171;BME280;41060;47.510;8.680;2024-01-06T08:19:03;96227.50;;;7.50;55.84
55171;BME280;41060;47.510;8.680;2024-01-06T08:21:33;96229.19;;;7.51;56.15
55171;BME280;41060;47.510;8.680;2024-01-06T08:24:02;96229.13;;;7.42;55.68
55171;BME280;41060;47.510;8.680;2024-01-06T08:26:29;96227.63;;;7.17;56.62
55171;BME280;41060;47.510;8.680;2024-01-06T08:28:55;96235.03;;;7.23;57.46
55171;BME280;41060;47.510;8.680;2024-01-06T08:31:22;96240.16;;;7.13;57.53
55171;BME280;41060;47.510;8.680;2024-01-06T08:33:49;96234.56;;;7.18;56.73
55171;BME280;41060;47.510;8.680;2024-01-06T08:36:16;96243.03;;;7.21;56.84
55171;BME280;41060;47.510;8.680;2024-01-06T08:38:43;96246.41;;;7.01;56.78
55171;BME280;41060;47.510;8.680;2024-01-06T08:41:11;96244.66;;;6.91;56.79
55171;BME280;41060;47.510;8.680;2024-01-06T08:43:39;96243.91;;;6.77;56.93
55171;BME280;41060;47.510;8.680;2024-01-06T08:46:06;96257.56;;;6.82;57.70
55171;BME280;41060;47.510;8.680;2024-01-06T08:48:33;96258.41;;;7.05;57.53
55171;BME280;41060;47.510;8.680;2024-01-06T08:50:59;96259.44;;;7.14;57.59
55171;BME280;41060;47.510;8.680;2024-01-06T08:53:27;96269.13;;;7.13;57.14
55171;BME280;41060;47.510;8.680;2024-01-06T08:55:53;96269.50;;;7.20;57.31
55171;BME280;41060;47.510;8.680;2024-01-06T08:58:21;96258.38;;;7.28;57.46
55171;BME280;41060;47.510;8.680;2024-01-06T09:00:48;96269.34;;;7.33;57.45
55171;BME280;41060;47.510;8.680;2024-01-06T09:03:15;96279.16;;;7.42;57.34
55171;BME280;41060;47.510;8.680;2024-01-06T09:05:43;96280.09;;;7.52;58.11
55171;BME280;41060;47.510;8.680;2024-01-06T09:08:10;96278.16;;;7.54;56.84
55171;BME280;41060;47.510;8.680;2024-01-06T09:10:36;96262.19;;;7.35;56.72
55171;BME280;41060;47.510;8.680;2024-01-06T09:13:03;96281.19;;;7.49;57.87
55171;BME280;41060;47.510;8.680;2024-01-06T09:15:32;96278.91;;;7.45;56.78
55171;BME280;41060;47.510;8.680;2024-01-06T09:17:58;96273.91;;;7.31;57.40
55171;BME280;41060;47.510;8.680;2024-01-06T09:20:25;96283.00;;;7.15;56.77
55171;BME280;41060;47.510;8.680;2024-01-06T09:22:53;96284.47;;;7.08;57.89
55171;BME280;41060;47.510;8.680;2024-01-06T09:25:19;96277.78;;;7.04;58.69
55171;BME280;41060;47.510;8.680;2024-01-06T09:27:48;96287.56;;;7.13;58.52
55171;BME280;41060;47.510;8.680;2024-01-06T09:30:17;96292.97;;;7.12;58.12
55171;BME280;41060;47.510;8.680;2024-01-06T09:32:45;96289.59;;;6.99;58.12
55171;BME280;41060;47.510;8.680;2024-01-06T09:35:12;96289.84;;;6.96;58.91
55171;BME280;41060;47.510;8.680;2024-01-06T09:37:41;96289.50;;;6.89;59.18
55171;BME280;41060;47.510;8.680;2024-01-06T09:40:11;96293.69;;;7.03;58.70
55171;BME280;41060;47.510;8.680;2024-01-06T09:42:40;96282.28;;;7.24;58.03
55171;BME280;41060;47.510;8.680;2024-01-06T09:45:07;96295.31;;;7.37;57.77
55171;BME280;41060;47.510;8.680;2024-01-06T09:47:34;96281.31;;;7.48;57.95
55171;BME280;41060;47.510;8.680;2024-01-06T09:50:06;96293.03;;;7.44;57.68
55171;BME280;41060;47.510;8.680;2024-01-06T09:52:41;96289.81;;;7.29;58.22
55171;BME280;41060;47.510;8.680;2024-01-06T09:55:11;96283.38;;;7.11;57.43
55171;BME280;41060;47.510;8.680;2024-01-06T09:57:38;96239.50;;;6.67;57.29
55171;BME280;41060;47.510;8.680;2024-01-06T10:00:06;96290.59;;;6.98;57.20
55171;BME280;41060;47.510;8.680;2024-01-06T10:02:35;96291.28;;;7.11;57.43
55171;BME280;41060;47.510;8.680;2024-01-06T10:05:01;96283.38;;;7.33;56.99
55171;BME280;41060;47.510;8.680;2024-01-06T10:07:30;96285.00;;;7.45;56.53
55171;BME280;41060;47.510;8.680;2024-01-06T10:09:57;96286.91;;;7.54;56.33
55171;BME280;41060;47.510;8.680;2024-01-06T10:12:26;96284.84;;;7.58;55.79
55171;BME280;41060;47.510;8.680;2024-01-06T10:14:53;96283.19;;;7.68;55.33
55171;BME280;41060;47.510;8.680;2024-01-06T10:17:21;96276.47;;;7.64;55.42
55171;BME280;41060;47.510;8.680;2024-01-06T10:19:48;96279.94;;;7.65;55.71
55171;BME280;41060;47.510;8.680;2024-01-06T10:22:18;96290.34;;;7.66;55.48
55171;BME280;41060;47.510;8.680;2024-01-06T10:24:47;96244.44;;;7.48;55.48
55171;BME280;41060;47.510;8.680;2024-01-06T10:27:13;96282.69;;;7.63;55.73
55171;BME280;41060;47.510;8.680;2024-01-06T10:29:40;96280.91;;;7.63;55.79
55171;BME280;41060;47.510;8.680;2024-01-06T10:32:08;96277.44;;;7.63;55.25
55171;BME280;41060;47.510;8.680;2024-01-06T10:34:35;96281.28;;;7.70;55.60
55171;BME280;41060;47.510;8.680;2024-01-06T10:37:03;96279.38;;;7.50;55.26
55171;BME280;41060;47.510;8.680;2024-01-06T10:39:31;96275.47;;;7.22;56.42
55171;BME280;41060;47.510;8.680;2024-01-06T10:42:01;96275.63;;;7.20;56.90
55171;BME280;41060;47.510;8.680;2024-01-06T10:44:29;96274.63;;;7.21;56.71
55171;BME280;41060;47.510;8.680;2024-01-06T10:46:59;96270.34;;;7.09;57.56
55171;BME280;41060;47.510;8.680;2024-01-06T10:49:28;96272.13;;;7.20;57.71
55171;BME280;41060;47.510;8.680;2024-01-06T10:51:55;96275.59;;;7.09;57.46
55171;BME280;41060;47.510;8.680;2024-01-06T10:54:24;96271.91;;;7.12;58.26
55171;BME280;41060;47.510;8.680;2024-01-06T10:56:51;96270.00;;;7.03;57.89
55171;BME280;41060;47.510;8.680;2024-01-06T10:59:21;96266.28;;;6.94;58.28
55171;BME280;41060;47.510;8.680;2024-01-06T11:01:51;96266.53;;;7.02;58.05
55171;BME280;41060;47.510;8.680;2024-01-06T11:04:20;96265.09;;;6.98;58.73
55171;BME280;41060;47.510;8.680;2024-01-06T11:06:47;96263.88;;;7.02;58.47
55171;BME280;41060;47.510;8.680;2024-01-06T11:09:19;96264.97;;;7.00;58.83
55171;BME280;41060;47.510;8.680;2024-01-06T11:11:48;96260.31;;;7.03;58.82
55171;BME280;41060;47.510;8.680;2024-01-06T11:14:22;96263.50;;;7.07;58.80
55171;BME280;41060;47.510;8.680;2024-01-06T11:16:50;96264.69;;;7.14;58.64
55171;BME280;41060;47.510;8.680;2024-01-06T11:19:42;96259.59;;;7.12;58.90
55171;BME280;41060;47.510;8.680;2024-01-06T11:22:18;96275.97;;;7.16;57.93
55171;BME280;41060;47.510;8.680;2024-01-06T11:24:47;96265.28;;;7.29;57.99
55171;BME280;41060;47.510;8.680;2024-01-06T11:27:17;96252.50;;;7.24;57.26
55171;BME280;41060;47.510;8.680;2024-01-06T11:29:46;96264.19;;;7.42;56.55
55171;BME280;41060;47.510;8.680;2024-01-06T11:32:17;96260.06;;;7.60;56.41
55171;BME280;41060;47.510;8.680;2024-01-06T11:34:48;96258.28;;;7.72;55.81
55171;BME280;41060;47.510;8.680;2024-01-06T11:37:17;96252.50;;;7.78;56.22
55171;BME280;41060;47.510;8.680;2024-01-06T11:39:44;96256.31;;;7.85;56.26
55171;BME280;41060;47.510;8.680;2024-01-06T11:42:11;96260.28;;;7.80;55.96
55171;BME280;41060;47.510;8.680;2024-01-06T11:44:38;96252.97;;;7.83;55.94
55171;BME280;41060;47.510;8.680;2024-01-06T11:47:08;96257.03;;;7.87;56.24
55171;BME280;41060;47.510;8.680;2024-01-06T11:49:39;96248.97;;;7.89;55.88
55171;BME280;41060;47.510;8.680;2024-01-06T11:52:09;96250.75;;;7.88;56.27
55171;BME280;41060;47.510;8.680;2024-01-06T11:54:36;96243.97;;;7.86;55.50
55171;BME280;41060;47.510;8.680;2024-01-06T11:57:04;96248.63;;;7.82;55.59
55171;BME280;41060;47.510;8.680;2024-01-06T11:59:30;96242.28;;;7.85;55.49
55171;BME280;41060;47.510;8.680;2024-01-06T12:01:57;96242.28;;;7.85;54.85
55171;BME280;41060;47.510;8.680;2024-01-06T12:04:25;96244.31;;;7.81;55.38
55171;BME280;41060;47.510;8.680;2024-01-06T12:07:04;96228.28;;;7.84;54.53
55171;BME280;41060;47.510;8.680;2024-01-06T12:09:34;96234.00;;;7.89;55.26
55171;BME280;41060;47.510;8.680;2024-01-06T12:12:02;96234.66;;;8.02;54.80
55171;BME280;41060;47.510;8.680;2024-01-06T12:14:30;96232.16;;;8.01;53.76
55171;BME280;41060;47.510;8.680;2024-01-06T12:16:58;96235.44;;;7.93;54.67
55171;BME280;41060;47.510;8.680;2024-01-06T12:19:29;96232.28;;;7.68;55.14
55171;BME280;41060;47.510;8.680;2024-01-06T12:21:56;96231.25;;;7.48;55.07
55171;BME280;41060;47.510;8.680;2024-01-06T12:24:24;96203.06;;;7.28;54.82
55171;BME280;41060;47.510;8.680;2024-01-06T12:26:54;96187.41;;;7.26;54.70
55171;BME280;41060;47.510;8.680;2024-01-06T12:29:21;96218.19;;;7.57;54.97
55171;BME280;41060;47.510;8.680;2024-01-06T12:31:48;96213.88;;;7.56;55.37
55171;BME280;41060;47.510;8.680;2024-01-06T12:34:15;96214.19;;;7.63;55.33
55171;BME280;41060;47.510;8.680;2024-01-06T12:36:43;96216.13;;;7.61;55.26
55171;BME280;41060;47.510;8.680;2024-01-06T12:39:13;96207.63;;;7.69;55.07
55171;BME280;41060;47.510;8.680;2024-01-06T12:41:42;96210.59;;;7.75;55.38
55171;BME280;41060;47.510;8.680;2024-01-06T12:44:09;96218.56;;;7.85;55.50
55171;BME280;41060;47.510;8.680;2024-01-06T12:46:36;96211.94;;;7.90;55.45
55171;BME280;41060;47.510;8.680;2024-01-06T12:49:03;96215.66;;;7.88;55.25
55171;BME280;41060;47.510;8.680;2024-01-06T12:51:32;96220.56;;;7.92;55.63
55171;BME280;41060;47.510;8.680;2024-01-06T12:54:00;96219.78;;;7.81;55.76
55171;BME280;41060;47.510;8.680;2024-01-06T12:56:27;96216.81;;;7.74;56.04
55171;BME280;41060;47.510;8.680;2024-01-06T12:58:54;96206.53;;;7.71;56.19
55171;BME280;41060;47.510;8.680;2024-01-06T13:01:21;96215.66;;;7.67;56.45
55171;BME280;41060;47.510;8.680;2024-01-06T13:03:48;96210.25;;;7.69;56.73
55171;BME280;41060;47.510;8.680;2024-01-06T13:06:15;96212.13;;;7.78;56.13
55171;BME280;41060;47.510;8.680;2024-01-06T13:08:43;96213.50;;;7.72;55.89
55171;BME280;41060;47.510;8.680;2024-01-06T13:11:11;96220.78;;;7.69;56.03
55171;BME280;41060;47.510;8.680;2024-01-06T13:13:37;96214.78;;;7.67;56.32